createdAt,value
2023-03-06T00:07:35.973Z,-3.44
2023-03-06T00:17:43.038Z,-3.45
2023-03-06T00:27:47.738Z,-3.48
2023-03-06T00:37:50.982Z,-3.54
2023-03-06T00:47:55.622Z,-3.57
2023-03-06T00:58:00.167Z,-3.59
2023-03-06T01:08:07.050Z,-3.60
2023-03-06T01:18:11.541Z,-3.64
2023-03-06T01:28:15.899Z,-3.65
2023-03-06T01:38:19.227Z,-3.67
2023-03-06T01:48:25.199Z,-3.71
2023-03-06T01:58:28.705Z,-3.74
2023-03-06T02:08:33.958Z,-3.76
2023-03-06T02:18:38.024Z,-3.81
2023-03-06T02:28:42.289Z,-3.86
2023-03-06T02:38:51.067Z,-3.90
2023-03-06T02:48:55.445Z,-3.92
2023-03-06T02:58:59.452Z,-3.97
2023-03-06T03:09:04.728Z,-4.01
2023-03-06T03:19:08.278Z,-4.05
2023-03-06T03:29:17.216Z,-4.12
2023-03-06T03:39:23.387Z,-4.14
2023-03-06T03:49:30.349Z,-4.23
2023-03-06T03:59:34.369Z,-4.26
2023-03-06T04:09:50.086Z,-4.35
2023-03-06T04:19:53.903Z,-4.37
2023-03-06T04:30:00.752Z,-4.43
2023-03-06T04:40:05.044Z,-4.40
2023-03-06T04:50:11.161Z,-4.40
2023-03-06T05:00:18.425Z,-4.35
2023-03-06T05:10:24.297Z,-4.29
2023-03-06T05:20:29.293Z,-4.22
2023-03-06T05:30:34.744Z,-4.15
2023-03-06T05:40:40.640Z,-4.06
2023-03-06T05:50:45.072Z,-3.97
2023-03-06T06:00:48.030Z,-3.89
2023-03-06T06:10:53.596Z,-3.77
2023-03-06T06:20:57.477Z,-3.64
2023-03-06T06:31:09.189Z,-3.51
2023-03-06T06:41:35.956Z,-3.39
2023-03-06T06:51:38.225Z,-3.29
2023-03-06T07:01:42.197Z,-3.14
2023-03-06T07:11:47.123Z,-2.95
2023-03-06T07:21:51.241Z,-2.76
2023-03-06T07:31:56.366Z,-2.54
2023-03-06T07:42:00.385Z,-2.35
2023-03-06T07:52:06.186Z,-2.14
2023-03-06T08:02:11.990Z,-1.91
2023-03-06T08:12:17.567Z,-1.67
2023-03-06T08:22:36.071Z,-1.41
2023-03-06T08:32:59.482Z,-1.15
2023-03-06T08:43:03.501Z,-0.91
2023-03-06T08:53:08.533Z,-0.72
2023-03-06T09:03:12.096Z,-0.51
2023-03-06T09:13:20.019Z,-0.28
2023-03-06T09:23:23.632Z,-0.09
2023-03-06T09:33:29.427Z,-0.00
2023-03-06T09:43:46.240Z,0.09
2023-03-06T09:54:08.295Z,0.12
2023-03-06T10:04:30.694Z,0.14
2023-03-06T10:14:47.723Z,0.18
2023-03-06T10:24:58.500Z,0.23
2023-03-06T10:35:16.339Z,0.24
2023-03-06T10:45:19.995Z,0.31
2023-03-06T10:55:33.634Z,0.43
2023-03-06T11:05:37.896Z,0.61
2023-03-06T11:15:59.873Z,0.74
2023-03-06T11:26:21.516Z,0.82
2023-03-06T11:36:30.617Z,0.86
2023-03-06T11:46:38.947Z,0.89
2023-03-06T11:56:52.256Z,0.92
2023-03-06T12:07:07.940Z,0.96
2023-03-06T12:17:18.512Z,1.02
2023-03-06T12:27:35.192Z,1.09
2023-03-06T12:37:52.435Z,1.15
2023-03-06T12:47:59.636Z,1.19
2023-03-06T12:58:34.829Z,1.22
2023-03-06T13:09:09.264Z,1.28
2023-03-06T13:19:19.182Z,1.28
2023-03-06T13:30:01.769Z,1.25
2023-03-06T13:40:26.003Z,1.18
2023-03-06T13:50:42.034Z,1.06
2023-03-06T14:01:13.270Z,0.93
2023-03-06T14:11:22.170Z,0.76
2023-03-06T14:21:31.521Z,0.59
2023-03-06T14:31:41.972Z,0.42
2023-03-06T14:41:51.698Z,0.27
2023-03-06T14:51:58.476Z,0.12
2023-03-06T15:02:06.857Z,-0.06
2023-03-06T15:12:35.660Z,-0.22
2023-03-06T15:22:42.761Z,-0.34
2023-03-06T15:32:47.678Z,-0.42
2023-03-06T15:42:53.357Z,-0.52
2023-03-06T15:52:58.272Z,-0.61
2023-03-06T16:03:06.096Z,-0.74
2023-03-06T16:13:22.034Z,-0.89
2023-03-06T16:23:32.941Z,-0.99
2023-03-06T16:33:36.373Z,-1.09
2023-03-06T16:43:41.432Z,-1.19
2023-03-06T16:53:46.050Z,-1.30
2023-03-06T17:03:51.554Z,-1.38
2023-03-06T17:13:56.100Z,-1.47
2023-03-06T17:24:04.560Z,-1.59
2023-03-06T17:34:08.707Z,-1.68
2023-03-06T17:44:16.898Z,-1.79
2023-03-06T17:54:26.284Z,-1.86
2023-03-06T18:04:40.960Z,-1.92
2023-03-06T18:14:51.827Z,-2.02
2023-03-06T18:24:59.324Z,-2.08
2023-03-06T18:35:09.540Z,-2.12
2023-03-06T18:45:21.876Z,-2.18
2023-03-06T18:55:32.107Z,-2.23
2023-03-06T19:05:40.273Z,-2.26
2023-03-06T19:15:46.549Z,-2.28
2023-03-06T19:26:03.551Z,-2.29
2023-03-06T19:36:10.591Z,-2.33
2023-03-06T19:46:18.153Z,-2.34
2023-03-06T19:56:27.603Z,-2.34
2023-03-06T20:06:40.501Z,-2.36
2023-03-06T20:16:55.165Z,-2.40
2023-03-06T20:27:12.364Z,-2.51
2023-03-06T20:37:24.232Z,-2.53
2023-03-06T20:47:29.297Z,-2.63
2023-03-06T20:57:35.140Z,-2.67
2023-03-06T21:07:40.584Z,-2.71
2023-03-06T21:17:50.838Z,-2.75
2023-03-06T21:27:55.776Z,-2.76
2023-03-06T21:37:58.797Z,-2.78
2023-03-06T21:48:03.730Z,-2.81
2023-03-06T21:58:07.721Z,-2.84
2023-03-06T22:08:12.760Z,-2.90
2023-03-06T22:18:16.918Z,-3.00
2023-03-06T22:28:24.742Z,-3.08
2023-03-06T22:38:27.806Z,-3.11
2023-03-06T22:48:37.305Z,-3.15
2023-03-06T22:58:42.074Z,-3.17
2023-03-06T23:08:55.910Z,-3.18
2023-03-06T23:19:00.120Z,-3.24
2023-03-06T23:29:05.299Z,-3.28
2023-03-06T23:39:09.406Z,-3.35
2023-03-06T23:49:15.480Z,-3.35
2023-03-06T23:59:23.059Z,-3.35
